Hindu — WDG6190 — position and weather

sailwx.info

Track history (hours):
 
Tides and Currents Weather Stations Pressure Air Temp Water Temp Dewpoint Dewpoint Depression Visibility Wind Speed Wind Dir Waves Ship Positions

Hindu

Owner: Hindu Charters LLC, Key West, FL. More information available from US FCC via Universal Licensing System and Coast Guard Vessel Documentation Center.

Last reported at 2019-Oct-18 23:16 UTC. Time now 2019-Oct-23 00:47 UTC.
Position N 39°01' W 076°31'.

Length 25 m.

Type: Sailing vessel. MMSI: 367554370.

Date/timePositionNaut miles runAvg speedWind from/ knotsBaromVisibWave heightAir tempDewpointWater temp
2019-Oct-18 23:16N 39°01' W 076°31'0 1.2
2019-Oct-18 23:00N 39°01' W 076°31'2 3.1
2019-Oct-18 22:30N 38°60' W 076°29'3 6.6
2019-Oct-18 22:00N 38°58' W 076°26'4 7.0
2019-Oct-18 21:29N 39°00' W 076°23'3 7.2
2019-Oct-18 21:00N 39°04' W 076°24'11 6.7
2019-Oct-18 19:23N 39°13' W 076°31'3 7.3
2019-Oct-18 18:58N 39°15' W 076°34'2 4.2
2019-Oct-18 18:28N 39°17' W 076°35'0 0.1
2019-Oct-18 17:58N 39°17' W 076°35'0 0.1
2019-Oct-18 17:30N 39°17' W 076°35'0 0.0
2019-Oct-17 01:57N 39°17' W 076°35'1 1.4
2019-Oct-17 01:30N 39°16' W 076°35'3 5.8
2019-Oct-17 01:00N 39°14' W 076°33'3 5.8
2019-Oct-17 00:24N 39°12' W 076°29'2 5.9
2019-Oct-17 00:00N 39°11' W 076°26'293 5.7
2019-Oct-14 20:39N 41°32' W 070°50'1 6.8
2019-Oct-14 20:29N 41°33' W 070°48'4 7.2
2019-Oct-14 20:00N 41°35' W 070°45'4 7.4
2019-Oct-14 19:30N 41°39' W 070°43'4 8.1
2019-Oct-14 19:00N 41°42' W 070°40'  
Track history (hours):
 
Tides and Currents Weather Stations Pressure Air Temp Water Temp Dewpoint Dewpoint Depression Visibility Wind Speed Wind Dir Waves Ship Positions

Hindu

Owner: Hindu Charters LLC, Key West, FL. More information available from US FCC via Universal Licensing System and Coast Guard Vessel Documentation Center.

Last reported at 2019-Oct-18 23:16 UTC. Time now 2019-Oct-23 00:47 UTC.
Position N 39°01' W 076°31'.

Length 25 m.

Type: Sailing vessel. MMSI: 367554370.

Date/timePositionNaut miles runAvg speedWind from/ knotsBaromVisibWave heightAir tempDewpointWater temp
2019-Oct-18 23:16N 39°01' W 076°31'0 1.2
2019-Oct-18 23:00N 39°01' W 076°31'2 3.1
2019-Oct-18 22:30N 38°60' W 076°29'3 6.6
2019-Oct-18 22:00N 38°58' W 076°26'4 7.0
2019-Oct-18 21:29N 39°00' W 076°23'3 7.2
2019-Oct-18 21:00N 39°04' W 076°24'11 6.7
2019-Oct-18 19:23N 39°13' W 076°31'3 7.3
2019-Oct-18 18:58N 39°15' W 076°34'2 4.2
2019-Oct-18 18:28N 39°17' W 076°35'0 0.1
2019-Oct-18 17:58N 39°17' W 076°35'0 0.1
2019-Oct-18 17:30N 39°17' W 076°35'0 0.0
2019-Oct-17 01:57N 39°17' W 076°35'1 1.4
2019-Oct-17 01:30N 39°16' W 076°35'3 5.8
2019-Oct-17 01:00N 39°14' W 076°33'3 5.8
2019-Oct-17 00:24N 39°12' W 076°29'2 5.9
2019-Oct-17 00:00N 39°11' W 076°26'293 5.7
2019-Oct-14 20:39N 41°32' W 070°50'1 6.8
2019-Oct-14 20:29N 41°33' W 070°48'4 7.2
2019-Oct-14 20:00N 41°35' W 070°45'4 7.4
2019-Oct-14 19:30N 41°39' W 070°43'4 8.1
2019-Oct-14 19:00N 41°42' W 070°40'  

Dump ship's entire track history